createdAt,value
2023-04-16T00:02:02.279Z,77.42
2023-04-16T00:04:29.914Z,77.65
2023-04-16T00:06:56.996Z,78.06
2023-04-16T00:09:24.060Z,78.13
2023-04-16T00:11:51.099Z,78.27
2023-04-16T00:14:18.166Z,77.79
2023-04-16T00:16:45.386Z,77.78
2023-04-16T00:19:12.458Z,78.35
2023-04-16T00:21:39.525Z,78.60
2023-04-16T00:24:06.510Z,79.02
2023-04-16T00:26:33.556Z,79.51
2023-04-16T00:29:01.237Z,79.76
2023-04-16T00:31:32.344Z,79.44
2023-04-16T00:33:59.934Z,79.16
2023-04-16T00:36:28.136Z,79.06
2023-04-16T00:38:56.245Z,78.37
2023-04-16T00:41:23.531Z,78.43
2023-04-16T00:43:51.027Z,78.17
2023-04-16T00:46:19.883Z,79.26
2023-04-16T00:48:46.984Z,79.10
2023-04-16T00:51:14.056Z,78.59
2023-04-16T00:53:41.707Z,78.18
2023-04-16T00:56:09.267Z,78.16
2023-04-16T00:58:36.500Z,77.29
2023-04-16T01:01:03.427Z,77.75
2023-04-16T01:03:43.888Z,77.89
2023-04-16T01:06:11.099Z,77.43
2023-04-16T01:08:38.282Z,78.39
2023-04-16T01:11:05.544Z,78.54
2023-04-16T01:13:34.310Z,76.67
2023-04-16T01:16:01.588Z,77.86
2023-04-16T01:18:28.571Z,78.03
2023-04-16T01:20:55.769Z,77.51
2023-04-16T01:23:22.915Z,76.96
2023-04-16T01:25:49.969Z,76.99
2023-04-16T01:28:17.181Z,76.40
2023-04-16T01:30:44.449Z,77.17
2023-04-16T01:33:12.323Z,77.01
2023-04-16T01:35:39.993Z,76.63
2023-04-16T01:38:08.910Z,77.20
2023-04-16T01:40:36.924Z,76.94
2023-04-16T01:43:04.809Z,77.40
2023-04-16T01:45:32.532Z,77.19
2023-04-16T01:47:59.528Z,76.73
2023-04-16T01:50:26.931Z,76.29
2023-04-16T01:52:54.007Z,77.21
2023-04-16T01:55:21.006Z,77.58
2023-04-16T01:57:48.178Z,76.72
2023-04-16T02:00:15.358Z,77.00
2023-04-16T02:02:42.499Z,76.69
2023-04-16T02:05:09.573Z,76.61
2023-04-16T02:07:36.544Z,76.40
2023-04-16T02:10:04.963Z,76.49
2023-04-16T02:12:31.818Z,76.49
2023-04-16T02:14:58.964Z,76.94
2023-04-16T02:17:25.897Z,76.85
2023-04-16T02:19:53.186Z,77.65
2023-04-16T02:22:20.393Z,76.85
2023-04-16T02:24:47.216Z,77.03
2023-04-16T02:27:14.049Z,76.86
2023-04-16T02:29:41.068Z,76.34
2023-04-16T02:32:08.331Z,76.00
2023-04-16T02:34:35.821Z,76.20
2023-04-16T02:37:02.607Z,75.21
2023-04-16T02:39:32.023Z,76.45
2023-04-16T02:41:59.555Z,76.72
2023-04-16T02:44:26.438Z,76.60
2023-04-16T02:46:53.257Z,76.04
2023-04-16T02:49:20.200Z,75.79
2023-04-16T02:51:46.988Z,75.78
2023-04-16T02:54:13.807Z,75.58
2023-04-16T02:56:40.781Z,76.54
2023-04-16T02:59:07.945Z,75.75
2023-04-16T03:01:35.031Z,75.65
2023-04-16T03:04:02.039Z,75.31
2023-04-16T03:06:28.941Z,74.93
2023-04-16T03:08:56.007Z,75.17
2023-04-16T03:11:23.047Z,75.38
2023-04-16T03:17:30.286Z,74.71
2023-04-16T03:19:57.310Z,74.49
2023-04-16T03:22:24.370Z,74.36
2023-04-16T03:24:51.759Z,74.16
2023-04-16T03:27:18.649Z,75.12
2023-04-16T03:29:47.841Z,74.64
2023-04-16T03:32:14.895Z,75.19
2023-04-16T03:34:41.758Z,75.05
2023-04-16T03:37:12.162Z,75.03
2023-04-16T03:39:39.248Z,75.49
2023-04-16T03:42:06.333Z,74.81
2023-04-16T03:44:33.219Z,75.08
2023-04-16T03:47:00.593Z,74.20
2023-04-16T03:49:27.697Z,74.84
2023-04-16T03:51:54.644Z,74.64
2023-04-16T03:54:22.805Z,75.17
2023-04-16T03:56:53.263Z,74.44
2023-04-16T03:59:20.193Z,75.05
2023-04-16T04:01:47.283Z,74.82
2023-04-16T04:04:14.375Z,75.02
2023-04-16T04:06:41.547Z,74.52
2023-04-16T04:09:08.674Z,74.05
2023-04-16T04:11:35.539Z,74.60
2023-04-16T04:14:02.425Z,74.00
2023-04-16T04:16:29.259Z,74.07
2023-04-16T04:18:56.015Z,74.42
2023-04-16T04:21:22.860Z,74.03
2023-04-16T04:23:49.834Z,73.51
2023-04-16T04:26:17.513Z,73.87
2023-04-16T04:28:44.313Z,73.61
2023-04-16T04:31:11.376Z,73.69
2023-04-16T04:33:38.217Z,73.41
2023-04-16T04:36:05.369Z,73.70
2023-04-16T04:38:32.388Z,73.05
2023-04-16T04:40:59.688Z,73.32
2023-04-16T04:43:26.896Z,72.51
2023-04-16T04:45:53.627Z,73.12
2023-04-16T04:48:26.378Z,73.28
2023-04-16T04:50:54.078Z,72.89
2023-04-16T04:53:20.901Z,73.03
2023-04-16T04:55:50.905Z,72.92
2023-04-16T04:58:19.874Z,72.96
2023-04-16T05:00:47.052Z,73.27
2023-04-16T05:03:20.598Z,73.26
2023-04-16T05:05:48.308Z,73.86
2023-04-16T05:08:15.159Z,73.56
2023-04-16T05:10:42.215Z,73.67
2023-04-16T05:13:08.955Z,72.90
2023-04-16T05:15:35.843Z,72.47
2023-04-16T05:18:02.783Z,73.11
2023-04-16T05:20:29.704Z,72.91
2023-04-16T05:22:56.869Z,72.14
2023-04-16T05:25:23.908Z,73.21
2023-04-16T05:27:50.817Z,72.23
2023-04-16T05:30:17.938Z,72.73
2023-04-16T05:32:44.843Z,72.55
2023-04-16T05:35:11.956Z,72.14
2023-04-16T05:37:39.009Z,72.43
2023-04-16T05:40:06.580Z,72.24
2023-04-16T05:42:33.739Z,72.28
2023-04-16T05:45:03.028Z,71.70
2023-04-16T05:47:30.004Z,71.92
2023-04-16T05:49:56.897Z,71.97
2023-04-16T05:52:23.912Z,71.75
2023-04-16T05:54:50.784Z,71.63
2023-04-16T05:57:17.579Z,71.63
2023-04-16T05:59:44.593Z,71.52
2023-04-16T06:02:11.600Z,71.94
2023-04-16T06:04:38.574Z,70.96
2023-04-16T06:07:05.633Z,70.94
2023-04-16T06:09:32.550Z,71.37
2023-04-16T06:12:00.143Z,70.48
2023-04-16T06:14:27.189Z,70.77
2023-04-16T06:16:54.280Z,71.01
2023-04-16T06:19:21.142Z,70.68
2023-04-16T06:21:48.241Z,70.61
2023-04-16T06:24:15.242Z,70.80
2023-04-16T06:26:42.391Z,70.77
2023-04-16T06:29:09.395Z,70.15
2023-04-16T06:31:36.570Z,70.81
2023-04-16T06:34:03.549Z,70.59
2023-04-16T06:36:31.652Z,70.17
2023-04-16T06:38:58.464Z,69.46
2023-04-16T06:41:26.827Z,70.34
2023-04-16T06:43:53.905Z,68.80
2023-04-16T06:46:20.723Z,69.22
2023-04-16T06:48:47.665Z,70.54
2023-04-16T06:51:14.502Z,69.50
2023-04-16T06:53:42.682Z,69.26
2023-04-16T06:56:09.604Z,67.67
2023-04-16T06:58:36.642Z,68.23
2023-04-16T07:01:04.022Z,67.43
2023-04-16T07:03:31.626Z,66.58
2023-04-16T07:05:59.132Z,67.72
2023-04-16T07:08:26.078Z,67.78
2023-04-16T07:10:54.037Z,68.13
2023-04-16T07:13:21.819Z,67.54
2023-04-16T07:15:48.861Z,67.07
2023-04-16T07:18:16.013Z,67.11
2023-04-16T07:20:42.962Z,67.26
2023-04-16T07:23:09.859Z,66.85
2023-04-16T07:25:37.043Z,66.55
2023-04-16T07:28:04.216Z,65.99
2023-04-16T07:30:34.496Z,66.57
2023-04-16T07:33:05.663Z,66.20
2023-04-16T07:35:32.917Z,66.91
2023-04-16T07:37:59.825Z,66.15
2023-04-16T07:40:26.854Z,66.63
2023-04-16T07:42:54.829Z,66.12
2023-04-16T07:45:21.980Z,65.90
2023-04-16T07:47:49.313Z,64.98
2023-04-16T07:50:16.685Z,65.79
2023-04-16T07:52:45.505Z,65.75
2023-04-16T07:55:12.433Z,65.02
2023-04-16T07:57:41.008Z,64.27
2023-04-16T08:00:09.220Z,64.23
2023-04-16T08:02:39.606Z,64.42
2023-04-16T08:05:07.170Z,64.62
2023-04-16T08:07:34.746Z,63.37
2023-04-16T08:10:02.438Z,62.98
2023-04-16T08:12:29.946Z,63.26
2023-04-16T08:14:56.865Z,63.54
2023-04-16T08:17:23.961Z,63.24
2023-04-16T08:19:51.154Z,64.01
2023-04-16T08:22:18.294Z,63.77
2023-04-16T08:24:45.258Z,63.86
2023-04-16T08:27:19.305Z,64.34
2023-04-16T08:29:48.139Z,64.38
2023-04-16T08:32:15.180Z,63.11
2023-04-16T08:34:42.744Z,63.58
2023-04-16T08:37:09.956Z,62.49
2023-04-16T08:39:37.038Z,63.28
2023-04-16T08:42:06.547Z,62.67
2023-04-16T08:44:37.754Z,61.90
2023-04-16T08:47:09.645Z,62.29
2023-04-16T08:49:42.417Z,61.62
2023-04-16T08:52:19.791Z,61.41
2023-04-16T08:55:13.219Z,61.15
2023-04-16T08:58:04.470Z,60.94
2023-04-16T09:00:32.213Z,62.32
2023-04-16T09:02:59.662Z,62.56
2023-04-16T09:05:29.587Z,61.75
2023-04-16T09:07:56.322Z,62.27
2023-04-16T09:10:23.725Z,63.29
2023-04-16T09:12:50.748Z,62.72
2023-04-16T09:15:17.681Z,62.01
2023-04-16T09:17:44.693Z,62.63
2023-04-16T09:20:12.788Z,62.70
2023-04-16T09:22:42.734Z,61.30
2023-04-16T09:25:10.699Z,60.71
2023-04-16T09:27:37.798Z,60.69
2023-04-16T09:30:25.441Z,59.33
2023-04-16T09:33:12.007Z,59.65
2023-04-16T09:35:49.861Z,59.21
2023-04-16T09:38:17.118Z,58.67
2023-04-16T09:40:44.442Z,58.41
2023-04-16T09:43:15.662Z,57.70
2023-04-16T09:45:53.070Z,57.53
2023-04-16T09:48:38.428Z,57.42
2023-04-16T09:51:06.979Z,56.94
2023-04-16T09:53:34.073Z,56.19
2023-04-16T09:56:03.474Z,56.40
2023-04-16T09:58:30.609Z,55.07
2023-04-16T10:01:05.651Z,53.93
2023-04-16T10:03:33.964Z,53.71
2023-04-16T10:06:02.331Z,53.48
2023-04-16T10:08:29.573Z,53.36
2023-04-16T10:10:57.527Z,54.02
2023-04-16T10:13:27.949Z,53.11
2023-04-16T10:15:58.208Z,54.31
2023-04-16T10:18:25.086Z,55.25
2023-04-16T10:20:52.718Z,53.90
2023-04-16T10:23:22.091Z,54.15
2023-04-16T10:25:56.421Z,53.65
2023-04-16T10:28:25.029Z,53.19
2023-04-16T10:30:54.166Z,55.24
2023-04-16T10:33:23.342Z,55.63
2023-04-16T10:36:04.773Z,56.41
2023-04-16T10:38:35.456Z,56.93
2023-04-16T10:41:04.111Z,56.64
2023-04-16T10:43:33.229Z,57.03
2023-04-16T10:46:31.753Z,57.61
2023-04-16T10:49:03.692Z,57.62
2023-04-16T10:51:35.420Z,57.26
2023-04-16T10:54:21.223Z,56.62
2023-04-16T10:56:48.251Z,56.77
2023-04-16T10:59:19.226Z,56.06
2023-04-16T11:01:58.767Z,55.43
2023-04-16T11:04:25.781Z,54.99
2023-04-16T11:07:06.451Z,54.25
2023-04-16T11:10:05.342Z,54.59
2023-04-16T11:12:32.433Z,54.86
2023-04-16T11:15:00.228Z,56.82
2023-04-16T11:17:40.230Z,57.35
2023-04-16T11:20:28.431Z,57.51
2023-04-16T11:22:57.287Z,58.47
2023-04-16T11:25:26.649Z,57.60
2023-04-16T11:27:53.997Z,57.33
2023-04-16T11:30:41.832Z,57.36
2023-04-16T11:33:11.493Z,58.26
2023-04-16T11:35:39.810Z,59.15
2023-04-16T11:38:07.747Z,59.30
2023-04-16T11:40:35.405Z,58.19
2023-04-16T11:43:04.236Z,59.27
2023-04-16T11:45:31.368Z,58.55
2023-04-16T11:47:58.457Z,58.70
2023-04-16T11:50:30.081Z,57.74
2023-04-16T11:53:03.560Z,57.58
2023-04-16T11:55:31.436Z,56.07
2023-04-16T11:57:58.428Z,54.63
2023-04-16T12:00:25.735Z,54.50
2023-04-16T12:02:57.638Z,53.00
2023-04-16T12:05:36.197Z,52.21
2023-04-16T12:08:08.771Z,52.84
2023-04-16T12:10:54.884Z,53.69
2023-04-16T12:13:22.012Z,53.74
2023-04-16T12:15:49.734Z,53.67
2023-04-16T12:18:18.562Z,53.10
2023-04-16T12:20:46.781Z,53.41
2023-04-16T12:23:23.276Z,53.98
2023-04-16T12:25:50.288Z,54.47
2023-04-16T12:28:32.119Z,55.43
2023-04-16T12:30:59.670Z,55.24
2023-04-16T12:33:26.915Z,54.59
2023-04-16T12:35:53.970Z,54.63
2023-04-16T12:38:22.819Z,55.75
2023-04-16T12:40:51.157Z,56.45
2023-04-16T12:43:18.157Z,56.66
2023-04-16T12:45:45.019Z,56.74
2023-04-16T12:48:12.186Z,56.24
2023-04-16T12:50:39.992Z,56.71
2023-04-16T12:53:06.919Z,55.96
2023-04-16T12:55:34.024Z,53.82
2023-04-16T12:58:01.241Z,54.30
2023-04-16T13:00:28.275Z,54.30
2023-04-16T13:02:55.451Z,54.03
2023-04-16T13:05:22.597Z,54.42
2023-04-16T13:07:49.504Z,54.76
2023-04-16T13:10:16.917Z,54.96
2023-04-16T13:12:44.016Z,55.32
2023-04-16T13:15:11.343Z,52.94
2023-04-16T13:17:38.483Z,52.83
2023-04-16T13:20:09.064Z,54.28
2023-04-16T13:22:36.349Z,56.27
2023-04-16T13:25:03.555Z,55.92
2023-04-16T13:27:32.273Z,56.00
2023-04-16T13:29:59.253Z,54.15
2023-04-16T13:32:26.161Z,55.83
2023-04-16T13:34:53.046Z,55.13
2023-04-16T13:37:19.966Z,54.23
2023-04-16T13:39:47.815Z,54.85
2023-04-16T13:42:14.614Z,52.98
2023-04-16T13:44:41.604Z,51.84
2023-04-16T13:47:08.848Z,50.47
2023-04-16T13:49:36.364Z,49.15
2023-04-16T13:52:03.563Z,51.01
2023-04-16T13:54:30.491Z,51.36
2023-04-16T13:56:57.493Z,52.71
2023-04-16T13:59:24.503Z,53.35
2023-04-16T14:01:51.671Z,53.84
2023-04-16T14:04:19.063Z,51.87
2023-04-16T14:06:45.914Z,51.69
2023-04-16T14:09:13.278Z,52.31
2023-04-16T14:11:40.332Z,52.83
2023-04-16T14:14:07.327Z,51.71
2023-04-16T14:16:35.388Z,51.53
2023-04-16T14:19:02.494Z,50.73
2023-04-16T14:21:29.803Z,51.48
2023-04-16T14:23:56.922Z,51.50
2023-04-16T14:26:23.923Z,52.10
2023-04-16T14:28:51.291Z,52.60
2023-04-16T14:31:18.355Z,53.24
2023-04-16T14:33:45.503Z,53.35
2023-04-16T14:36:12.536Z,53.48
2023-04-16T14:38:40.633Z,54.41
2023-04-16T14:41:07.760Z,55.23
2023-04-16T14:43:36.004Z,54.38
2023-04-16T14:46:05.229Z,54.28
2023-04-16T14:48:32.384Z,54.66
2023-04-16T14:50:59.422Z,54.82
2023-04-16T14:53:26.436Z,54.69
2023-04-16T14:55:53.724Z,54.70
2023-04-16T14:58:20.570Z,55.09
2023-04-16T15:00:47.645Z,55.15
2023-04-16T15:03:14.955Z,54.83
2023-04-16T15:05:41.860Z,53.95
2023-04-16T15:08:08.877Z,54.27
2023-04-16T15:10:35.781Z,53.59
2023-04-16T15:13:02.774Z,54.37
2023-04-16T15:15:29.842Z,55.82
2023-04-16T15:17:57.902Z,55.08
2023-04-16T15:20:25.613Z,56.02
2023-04-16T15:22:53.318Z,55.88
2023-04-16T15:25:20.421Z,55.51
2023-04-16T15:27:47.622Z,54.89
2023-04-16T15:30:14.736Z,55.69
2023-04-16T15:32:41.699Z,56.10
2023-04-16T15:35:11.179Z,56.04
2023-04-16T15:37:39.060Z,57.01
2023-04-16T15:40:08.124Z,57.76
2023-04-16T15:42:35.299Z,57.66
2023-04-16T15:45:02.671Z,58.45
2023-04-16T15:47:29.598Z,58.23
2023-04-16T15:49:56.451Z,57.44
2023-04-16T15:52:23.271Z,57.78
2023-04-16T15:54:50.313Z,57.87
2023-04-16T15:57:17.172Z,57.43
2023-04-16T15:59:50.123Z,56.26
2023-04-16T16:02:26.703Z,57.34
2023-04-16T16:04:54.259Z,56.41
2023-04-16T16:07:21.489Z,55.59
2023-04-16T16:09:48.540Z,56.99
2023-04-16T16:12:15.589Z,57.86
2023-04-16T16:14:44.511Z,57.15
2023-04-16T16:17:11.654Z,57.67
2023-04-16T16:19:38.483Z,58.11
2023-04-16T16:22:05.860Z,57.58
2023-04-16T16:24:33.051Z,58.07
2023-04-16T16:26:59.959Z,57.54
2023-04-16T16:29:26.928Z,58.31
2023-04-16T16:31:53.916Z,58.58
2023-04-16T16:34:21.544Z,59.05
2023-04-16T16:36:49.070Z,58.85
2023-04-16T16:39:16.194Z,59.51
2023-04-16T16:41:43.364Z,60.12
2023-04-16T16:44:10.472Z,59.48
2023-04-16T16:46:37.518Z,60.25
2023-04-16T16:49:06.278Z,60.81
2023-04-16T16:51:34.073Z,60.73
2023-04-16T16:54:01.167Z,61.16
2023-04-16T16:56:28.206Z,61.03
2023-04-16T16:58:55.287Z,61.54
2023-04-16T17:01:22.420Z,61.31
2023-04-16T17:03:49.321Z,60.96
2023-04-16T17:06:16.438Z,61.57
2023-04-16T17:08:43.329Z,62.12
2023-04-16T17:11:10.266Z,62.66
2023-04-16T17:13:37.188Z,63.06
2023-04-16T17:16:04.135Z,63.17
2023-04-16T17:18:31.346Z,63.58
2023-04-16T17:20:59.224Z,64.64
2023-04-16T17:23:26.156Z,64.67
2023-04-16T17:25:53.515Z,65.00
2023-04-16T17:28:21.035Z,65.67
2023-04-16T17:30:52.226Z,64.65
2023-04-16T17:33:20.722Z,64.60
2023-04-16T17:35:47.667Z,65.58
2023-04-16T17:38:14.735Z,65.66
2023-04-16T17:40:41.882Z,65.80
2023-04-16T17:43:08.798Z,66.30
2023-04-16T17:45:35.842Z,66.24
2023-04-16T17:48:02.923Z,67.00
2023-04-16T17:50:29.912Z,66.59
2023-04-16T17:52:58.430Z,66.40
2023-04-16T17:55:27.328Z,66.82
2023-04-16T17:57:54.379Z,66.71
2023-04-16T18:00:21.416Z,67.12
2023-04-16T18:02:48.434Z,67.63
2023-04-16T18:05:15.750Z,67.49
2023-04-16T18:07:43.891Z,68.58
2023-04-16T18:10:10.934Z,68.78
2023-04-16T18:12:37.956Z,69.11
2023-04-16T18:15:06.438Z,69.67
2023-04-16T18:17:33.803Z,69.01
2023-04-16T18:20:00.736Z,69.92
2023-04-16T18:22:28.737Z,68.49
2023-04-16T18:24:58.347Z,69.44
2023-04-16T18:27:25.212Z,69.39
2023-04-16T18:29:54.594Z,69.75
2023-04-16T18:32:22.565Z,69.87
2023-04-16T18:34:49.607Z,70.38
2023-04-16T18:37:16.340Z,70.26
2023-04-16T18:39:43.128Z,70.52
2023-04-16T18:42:10.254Z,70.93
2023-04-16T18:44:37.119Z,70.74
2023-04-16T18:47:04.005Z,70.91
2023-04-16T18:49:30.936Z,70.65
2023-04-16T18:51:58.053Z,70.73
2023-04-16T18:54:24.863Z,70.76
2023-04-16T18:56:52.928Z,71.33
2023-04-16T18:59:19.850Z,70.99
2023-04-16T19:01:46.952Z,70.45
2023-04-16T19:04:13.829Z,70.90
2023-04-16T19:06:41.215Z,72.15
2023-04-16T19:09:10.164Z,72.07
2023-04-16T19:11:38.158Z,72.45
2023-04-16T19:14:06.019Z,72.20
2023-04-16T19:16:33.066Z,73.24
2023-04-16T19:19:00.017Z,72.84
2023-04-16T19:21:27.870Z,72.99
2023-04-16T19:23:54.721Z,72.55
2023-04-16T19:26:21.737Z,72.85
2023-04-16T19:28:48.526Z,73.46
2023-04-16T19:31:15.983Z,73.07
2023-04-16T19:33:42.821Z,72.63
2023-04-16T19:36:09.910Z,72.69
2023-04-16T19:38:36.754Z,72.74
2023-04-16T19:41:03.727Z,72.82
2023-04-16T19:43:31.218Z,72.81
2023-04-16T19:45:58.902Z,72.89
2023-04-16T19:48:26.318Z,73.45
2023-04-16T19:50:53.283Z,73.71
2023-04-16T19:53:21.276Z,73.11
2023-04-16T19:55:50.367Z,74.04
2023-04-16T19:58:18.021Z,73.94
2023-04-16T20:00:45.594Z,73.40
2023-04-16T20:03:12.546Z,73.75
2023-04-16T20:05:39.486Z,73.86
2023-04-16T20:08:06.661Z,74.17
2023-04-16T20:10:34.170Z,75.06
2023-04-16T20:13:03.736Z,74.29
2023-04-16T20:15:30.592Z,74.33
2023-04-16T20:17:57.685Z,74.51
2023-04-16T20:20:24.675Z,75.40
2023-04-16T20:22:51.875Z,75.27
2023-04-16T20:25:19.638Z,74.32
2023-04-16T20:27:46.637Z,74.75
2023-04-16T20:30:14.308Z,75.00
2023-04-16T20:32:41.368Z,74.01
2023-04-16T20:35:11.258Z,73.49
2023-04-16T20:37:38.960Z,73.83
2023-04-16T20:40:09.779Z,74.38
2023-04-16T20:42:36.731Z,73.72
2023-04-16T20:45:03.704Z,74.03
2023-04-16T20:47:30.681Z,73.62
2023-04-16T20:49:58.358Z,74.60
2023-04-16T20:52:25.430Z,74.25
2023-04-16T20:54:52.457Z,73.83
2023-04-16T20:57:19.295Z,73.74
2023-04-16T20:59:46.501Z,74.49
2023-04-16T21:02:13.659Z,73.86
2023-04-16T21:04:42.324Z,74.08
2023-04-16T21:07:09.298Z,74.54
2023-04-16T21:09:36.383Z,74.36
2023-04-16T21:12:03.443Z,74.80
2023-04-16T21:14:30.228Z,75.06
2023-04-16T21:16:57.218Z,74.52
2023-04-16T21:19:24.288Z,74.41
2023-04-16T21:21:51.397Z,74.18
2023-04-16T21:24:19.237Z,74.29
2023-04-16T21:26:49.292Z,74.22
2023-04-16T21:29:16.378Z,74.75
2023-04-16T21:31:43.553Z,74.21
2023-04-16T21:34:10.535Z,74.07
2023-04-16T21:36:37.447Z,73.89
2023-04-16T21:39:04.295Z,74.42
2023-04-16T21:41:31.409Z,74.22
2023-04-16T21:43:58.304Z,74.39
2023-04-16T21:46:26.563Z,74.77
2023-04-16T21:48:53.935Z,75.42
2023-04-16T21:51:29.198Z,75.30
2023-04-16T21:53:57.345Z,75.19
2023-04-16T21:56:28.110Z,75.06
2023-04-16T21:58:54.948Z,74.78
2023-04-16T22:01:22.101Z,75.10
2023-04-16T22:03:52.560Z,75.74
2023-04-16T22:06:20.726Z,76.02
2023-04-16T22:08:50.257Z,75.31
2023-04-16T22:11:17.235Z,75.26
2023-04-16T22:13:46.521Z,74.96
2023-04-16T22:16:13.638Z,74.80
2023-04-16T22:18:41.326Z,74.53
2023-04-16T22:21:08.252Z,75.06
2023-04-16T22:23:35.181Z,75.31
2023-04-16T22:26:03.067Z,75.54
2023-04-16T22:28:29.961Z,74.90
2023-04-16T22:30:57.313Z,74.97
2023-04-16T22:33:24.261Z,75.36
2023-04-16T22:35:51.406Z,75.13
2023-04-16T22:38:18.332Z,74.94
2023-04-16T22:40:48.397Z,75.91
2023-04-16T22:43:17.815Z,76.09
2023-04-16T22:45:46.460Z,75.84
2023-04-16T22:48:13.665Z,75.73
2023-04-16T22:50:41.539Z,75.47
2023-04-16T22:53:08.506Z,75.61
2023-04-16T22:55:35.334Z,75.53
2023-04-16T22:58:02.383Z,76.22
2023-04-16T23:00:30.051Z,75.75
2023-04-16T23:02:57.067Z,75.98
2023-04-16T23:05:24.162Z,76.17
2023-04-16T23:07:51.090Z,76.74
2023-04-16T23:10:17.974Z,76.54
2023-04-16T23:12:44.938Z,76.82
2023-04-16T23:15:11.959Z,76.54
2023-04-16T23:17:39.894Z,77.08
2023-04-16T23:20:08.063Z,77.09
2023-04-16T23:22:34.948Z,76.64
2023-04-16T23:25:02.198Z,77.21
2023-04-16T23:27:29.168Z,77.21
2023-04-16T23:29:56.011Z,77.37
2023-04-16T23:32:23.008Z,77.08
2023-04-16T23:34:49.993Z,76.82
2023-04-16T23:37:17.143Z,77.41
2023-04-16T23:39:44.469Z,76.73
2023-04-16T23:42:11.499Z,77.58
2023-04-16T23:44:38.576Z,77.47
2023-04-16T23:47:05.551Z,76.74
2023-04-16T23:49:32.647Z,77.38
2023-04-16T23:51:59.557Z,77.63
2023-04-16T23:54:26.587Z,77.24
2023-04-16T23:56:53.656Z,77.60
2023-04-16T23:59:20.632Z,77.17
